KRNM

Details ICAO KRNM (RNM)
Name RAMONA
Region United States
Timezone America/Los_Angeles (UTC-8.0)
Plans Departing 10
Arriving 5
Stats Elevation 1,395 ft / 425 m (AMSL)
Location 33.039155° -116.915256°
Runways 1
Magnetic Variation 11.522° E
Sunrise 2017-12-17 14:46:06 UTC / 2017-12-17 06:46:06 Local
Sunset 2017-12-18 00:44:30 UTC / 2017-12-17 16:44:30 Local
Advertisement - Login to hide

Runways

ID Width Length Bearing (true) Bearing (mag) Surface Threshold Offset Overrun Length
09 151 ft / 46 m 5,005 ft / 1,526 m 99.90° 88.38° Asphalt 0 ft / 0 m 0 ft / 0 m
27 151 ft / 46 m 5,005 ft / 1,526 m 279.90° 268.38° Asphalt 0 ft / 0 m 0 ft / 0 m

Map

Weather


0- 5 10 15 20 25 30 35+ Temperature / ° C

Clouds and Precipitation
Forecast for 2017-12-18 06:00 UTC. Updated 36 minutes ago

Ground ~20,000 ft ~40,000 ft Winds

METAR

KRNM 180253Z 11003KT 10SM CLR 07/M04 A3001 RMK AO2 SLP164 T00671039 53027

TAF

Not found

Frequencies

Recorded 132.02 MHz ATIS
Ground 121.65 MHz GND
Approach 132.20 MHz SOCAL APP
Unicom 122.95 MHz CTAF/UNICOM
Tower 119.87 MHz TWR
Departure 127.30 MHz SOCAL DEP
Warning: Do not use this data for real-world aviation or navigation. No guarantee of current accuracy is given.